Aérodrome :
LOGIN :

S'inscrire | Disclaimer

   EN    FR    IT 

 










Légende :    VFR   VFR Marginal   IFR   IFR Intensif   IFR Très Intensif
Visi : 
Plafond : 
>= 8 km
>= 3000ft
5 à 8 km
1000 à 3000 ft
1500m à 5 km
500 à 1000 ft
800 à 1500m
200 à 500 ft
< 800m
< 200 ft
Symboles :   Orages  Brouillard  Fortes neiges  Fortes précipitations  Vent > 20 kt
SIGMETs :   Divers  Orages  Givrage  Turbulence  Onde Orograph.  Cendres Volcan.






- Altitude de l'aérodrome : 39 ft
- Code IATA : ANR


EBAW - Anvers / Antwerpen Deurne

DERNIER METAR :
  • 150650Z 24013G23KT 9999 FEW027 08/04 Q0996 TEMPO 23015G25KT

METARs EXPIRÉS :
  • 150620Z 25017G29KT 9999 FEW027 09/04 Q0995 TEMPO 23015G25KT
  • 150550Z 24015KT 210V270 9999 FEW027 09/05 Q0993 TEMPO 23015G25KT
  • 150520Z 25014G25KT CAVOK 09/06 Q0993 TEMPO 23015G25KT
  • 150450Z AUTO 25014KT 220V280 9999 // FEW006/// 09/07 Q0992 RERA
  • 150420Z AUTO 24014KT 210V270 9999 -SHRA FEW033/// SCT044/// 08/07 Q0991 RESHRA

TAF TAF EBAW
Valide du 15 à 06h jusqu'au 15 à 15h UTC


150500Z 1506/1515 19015G25KT 9999 FEW025
PROB30
TEMPO 1511/1515 23018G33KT 4000 SHRAGS FEW020CB



MET'MAP, la Météo Aéronautique d'un coup d'oeil ! - Copyright ORBIFLY Décembre 2007 - Disclaimer

ORBIFLY MET'MAP TEAM :

Programmation & Développement : Alexandra Zaïnal
Sur une idée originale de : Baudouin d'Aumeries
Assistance à la programmation : Marc-Olivier Méhu
Soutien technique & logistique : Manuel Goepfert

Contact : metmap@orbifly.com




SOURCES & CREDITS :

   NOAA